Time;durP1;ratioP1;P1;durP2;ratioP2;P2;SDS_P1;SDS_P2;PMS_P1;PMS_P2;Temp;Humidity;BMP_temperature;BMP_pressure;BME280_temperature;BME280_humidity;BME280_pressure;Samples;Min_cycle;Max_cycle;Signal;HPM_P1;HPM_P2
2022/01/13 00:01:39;;;;;;;16.63;3.67;;;10.90;99.90;;;;;;5042623;28;20278;-70
2022/01/13 00:04:05;;;;;;;21.37;3.73;;;10.90;99.90;;;;;;5042955;28;20202;-70
2022/01/13 00:06:32;;;;;;;18.00;2.97;;;10.90;99.90;;;;;;5024577;28;20725;-70
2022/01/13 00:08:58;;;;;;;15.77;4.23;;;10.90;99.90;;;;;;5041132;28;20203;-70
2022/01/13 00:11:25;;;;;;;17.90;3.80;;;10.90;99.90;;;;;;5043114;28;20187;-70
2022/01/13 00:16:41;;;;;;;22.27;3.80;;;10.90;99.90;;;;;;4995688;28;20615;-70
2022/01/13 00:21:38;;;;;;;12.60;3.37;;;10.90;99.90;;;;;;5043924;28;20191;-70
2022/01/13 00:24:06;;;;;;;18.33;3.97;;;10.90;99.90;;;;;;5043549;28;20218;-70
2022/01/13 00:26:35;;;;;;;21.87;3.80;;;11.00;99.90;;;;;;5044690;28;20302;-70
2022/01/13 00:29:02;;;;;;;16.37;3.80;;;11.00;99.90;;;;;;5029433;28;20557;-70
2022/01/13 00:31:35;;;;;;;25.90;4.13;;;11.00;99.90;;;;;;5041878;28;20990;-70
2022/01/13 00:34:06;;;;;;;21.30;3.53;;;11.00;99.90;;;;;;5043747;28;20233;-70
2022/01/13 00:36:36;;;;;;;18.00;3.80;;;11.00;99.90;;;;;;5042661;28;20211;-70
2022/01/13 00:39:06;;;;;;;16.60;3.70;;;11.00;99.90;;;;;;5036711;28;20215;-70
2022/01/13 00:41:33;;;;;;;27.67;4.60;;;10.90;99.90;;;;;;5044496;28;20194;-70
2022/01/13 00:44:02;;;;;;;31.40;4.40;;;10.90;99.90;;;;;;5044023;28;20191;-70
2022/01/13 00:46:40;;;;;;;28.50;4.33;;;10.90;99.90;;;;;;5037734;28;20207;-70
2022/01/13 00:49:09;;;;;;;19.00;3.57;;;10.90;99.90;;;;;;5034797;28;20702;-70
2022/01/13 00:51:35;;;;;;;20.10;3.73;;;11.00;99.90;;;;;;5044325;28;20191;-70
2022/01/13 00:54:05;;;;;;;20.90;4.03;;;11.00;99.90;;;;;;5043937;28;20282;-70
2022/01/13 00:56:33;;;;;;;16.63;3.40;;;11.00;99.90;;;;;;5047835;28;20302;-70
2022/01/13 00:59:01;;;;;;;23.27;4.00;;;11.00;99.90;;;;;;5047037;28;20206;-70
2022/01/13 01:01:27;;;;;;;15.80;4.67;;;10.90;99.90;;;;;;5046897;28;20814;-70
2022/01/13 01:03:54;;;;;;;20.07;3.93;;;11.00;99.90;;;;;;5030091;28;20547;-70
2022/01/13 01:06:21;;;;;;;19.13;3.40;;;10.90;99.90;;;;;;5030160;28;20211;-70
2022/01/13 01:08:47;;;;;;;19.17;3.00;;;10.90;99.90;;;;;;5044099;28;20206;-70
2022/01/13 01:11:14;;;;;;;16.83;3.10;;;10.90;99.90;;;;;;5043954;28;20203;-70
2022/01/13 01:13:40;;;;;;;16.73;2.80;;;10.90;99.90;;;;;;5047000;28;20199;-70
2022/01/13 01:16:10;;;;;;;22.73;3.43;;;10.90;99.90;;;;;;5029087;28;20563;-71
2022/01/13 01:26:41;;;;;;;18.57;3.13;;;10.90;99.90;;;;;;5048215;28;20210;-70
2022/01/13 01:29:22;;;;;;;15.70;2.77;;;10.90;99.90;;;;;;5043969;28;20278;-70
2022/01/13 01:31:53;;;;;;;13.43;2.77;;;10.90;99.90;;;;;;5047788;28;20269;-70
2022/01/13 01:34:43;;;;;;;18.70;2.90;;;10.80;99.90;;;;;;5046728;28;20235;-70
2022/01/13 01:37:16;;;;;;;18.07;2.87;;;10.80;99.90;;;;;;5047868;28;20215;-67
2022/01/13 01:39:46;;;;;;;16.77;2.30;;;10.80;99.90;;;;;;5041387;28;20206;-68
2022/01/13 01:42:14;;;;;;;16.40;2.50;;;10.70;99.90;;;;;;5044861;28;20191;-69
2022/01/13 01:44:44;;;;;;;19.03;2.80;;;10.70;99.90;;;;;;5047309;28;20635;-71
2022/01/13 01:47:14;;;;;;;16.92;2.92;;;10.70;99.90;;;;;;5045275;28;20451;-69
2022/01/13 01:49:48;;;;;;;15.17;2.70;;;10.70;99.90;;;;;;5029196;28;20540;-65
2022/01/13 01:52:18;;;;;;;15.03;2.63;;;10.70;99.90;;;;;;5046912;28;20976;-66
2022/01/13 01:54:46;;;;;;;25.47;3.27;;;10.70;99.90;;;;;;5044421;28;20223;-66
2022/01/13 01:57:12;;;;;;;19.63;2.93;;;10.70;99.90;;;;;;5040649;28;20219;-66
2022/01/13 01:59:41;;;;;;;14.40;2.40;;;10.70;99.90;;;;;;5048439;28;20203;-66
2022/01/13 02:02:10;;;;;;;19.50;4.57;;;10.70;99.90;;;;;;5052767;28;20184;-66
2022/01/13 02:04:39;;;;;;;16.53;2.73;;;10.70;99.90;;;;;;5048016;28;20187;-67
2022/01/13 02:07:07;;;;;;;18.03;2.90;;;10.70;99.90;;;;;;5046372;28;20206;-66
2022/01/13 02:09:37;;;;;;;20.67;3.23;;;10.80;99.90;;;;;;5049054;28;20715;-67
2022/01/13 02:12:11;;;;;;;17.87;2.83;;;10.80;99.90;;;;;;5040804;28;20187;-66
2022/01/13 02:14:58;;;;;;;17.20;3.00;;;10.80;99.90;;;;;;5048326;28;20214;-67
2022/01/13 02:17:28;;;;;;;23.03;2.80;;;10.80;99.90;;;;;;5047531;28;20743;-67
2022/01/13 02:19:57;;;;;;;18.43;3.53;;;10.90;99.90;;;;;;5048360;28;20583;-67
2022/01/13 02:22:24;;;;;;;18.07;2.80;;;10.90;99.90;;;;;;5048872;28;20207;-66
2022/01/13 02:24:51;;;;;;;15.33;2.70;;;10.90;99.90;;;;;;5046109;28;20187;-65
2022/01/13 02:27:18;;;;;;;19.63;3.07;;;10.90;99.90;;;;;;5035571;28;20196;-66
2022/01/13 02:29:44;;;;;;;19.67;3.17;;;10.90;99.90;;;;;;5054430;28;20194;-66
2022/01/13 02:32:11;;;;;;;17.30;3.00;;;11.00;99.90;;;;;;5047742;28;20175;-67
2022/01/13 02:34:37;;;;;;;18.13;2.83;;;11.00;99.90;;;;;;5047515;28;20200;-67
2022/01/13 02:37:04;;;;;;;22.70;3.23;;;11.00;99.90;;;;;;5055336;28;20203;-66
2022/01/13 02:39:31;;;;;;;11.87;2.60;;;11.00;99.90;;;;;;5068946;28;20190;-67
2022/01/13 02:42:00;;;;;;;14.83;2.60;;;11.00;99.90;;;;;;5035988;28;20205;-66
2022/01/13 02:44:26;;;;;;;15.20;2.80;;;11.00;99.90;;;;;;5047194;28;20191;-67
2022/01/13 02:47:10;;;;;;;15.17;2.20;;;10.90;99.90;;;;;;5048481;28;20180;-67
2022/01/13 02:49:36;;;;;;;17.63;3.37;;;10.90;99.90;;;;;;5048712;28;20210;-66
2022/01/13 02:52:03;;;;;;;19.67;2.73;;;10.90;99.90;;;;;;5048518;28;20183;-66
2022/01/13 02:54:30;;;;;;;14.20;2.33;;;10.90;99.90;;;;;;5058392;28;20203;-67
2022/01/13 02:56:57;;;;;;;17.13;3.00;;;11.00;99.90;;;;;;5047860;28;20583;-69
2022/01/13 02:59:23;;;;;;;17.60;2.87;;;11.00;99.90;;;;;;5047052;28;20188;-68
2022/01/13 03:01:49;;;;;;;19.27;3.50;;;10.90;99.90;;;;;;5047217;28;20576;-67
2022/01/13 03:04:15;;;;;;;14.20;2.73;;;11.00;99.90;;;;;;5046300;28;20948;-67
2022/01/13 03:06:41;;;;;;;15.87;2.50;;;11.00;99.90;;;;;;5046623;28;20191;-68
2022/01/13 03:09:13;;;;;;;20.63;2.40;;;11.00;99.90;;;;;;5064635;28;20186;-68
2022/01/13 03:11:41;;;;;;;14.03;2.93;;;11.00;99.90;;;;;;5065673;28;20198;-68
2022/01/13 03:14:11;;;;;;;15.43;2.70;;;10.90;99.90;;;;;;5042080;28;20188;-67
2022/01/13 03:16:43;;;;;;;19.93;3.00;;;10.90;99.90;;;;;;5046005;28;20199;-67
2022/01/13 03:19:11;;;;;;;24.40;3.73;;;10.90;99.90;;;;;;5046648;28;20179;-67
2022/01/13 03:21:38;;;;;;;16.17;2.30;;;10.90;99.90;;;;;;5046576;28;20231;-68
2022/01/13 03:24:10;;;;;;;17.43;2.70;;;10.90;99.90;;;;;;5046511;28;20215;-67
2022/01/13 03:26:37;;;;;;;19.40;2.70;;;10.80;99.90;;;;;;5046704;28;20176;-68
2022/01/13 03:29:15;;;;;;;13.17;2.80;;;10.80;99.90;;;;;;5046761;28;20685;-67
2022/01/13 03:31:44;;;;;;;13.63;2.70;;;10.80;99.90;;;;;;5044674;28;20219;-67
2022/01/13 03:34:14;;;;;;;15.23;2.97;;;10.80;99.90;;;;;;5045875;28;20203;-68
2022/01/13 03:36:44;;;;;;;14.77;2.70;;;10.80;99.90;;;;;;5047691;28;20748;-67
2022/01/13 03:39:13;;;;;;;16.30;2.30;;;10.80;99.90;;;;;;5046639;28;20618;-67
2022/01/13 03:41:41;;;;;;;13.93;2.40;;;10.80;99.90;;;;;;5037513;28;20200;-67
2022/01/13 03:44:17;;;;;;;11.90;2.00;;;10.80;99.90;;;;;;5042462;28;20211;-67
2022/01/13 03:46:43;;;;;;;10.93;2.20;;;10.80;99.90;;;;;;5045140;28;20182;-67
2022/01/13 03:49:10;;;;;;;13.03;1.90;;;10.80;99.90;;;;;;5046822;28;20210;-67
2022/01/13 03:52:18;;;;;;;15.60;2.50;;;10.70;99.90;;;;;;5027243;28;20290;-67
2022/01/13 03:55:14;;;;;;;13.37;2.27;;;10.70;99.90;;;;;;5035790;28;20202;-68
2022/01/13 03:58:22;;;;;;;18.50;2.23;;;10.60;99.90;;;;;;5047392;28;20207;-67
2022/01/13 04:01:28;;;;;;;13.83;2.07;;;10.60;99.90;;;;;;5042403;28;20199;-68
2022/01/13 04:03:56;;;;;;;18.00;2.30;;;10.60;99.90;;;;;;5026606;28;20222;-68
2022/01/13 04:06:22;;;;;;;15.30;2.37;;;10.60;99.90;;;;;;5026050;28;20191;-67
2022/01/13 04:08:54;;;;;;;17.00;2.00;;;10.60;99.90;;;;;;5040535;28;20191;-67
2022/01/13 04:11:28;;;;;;;16.57;2.40;;;10.60;99.90;;;;;;5046767;28;20731;-67
2022/01/13 04:14:02;;;;;;;17.10;2.67;;;10.50;99.90;;;;;;5041043;28;20188;-67
2022/01/13 04:16:33;;;;;;;11.60;2.07;;;10.50;99.90;;;;;;5042992;28;20215;-67
2022/01/13 04:19:05;;;;;;;11.90;1.87;;;10.50;99.90;;;;;;5047449;28;20301;-67
2022/01/13 04:21:43;;;;;;;14.20;2.37;;;10.50;99.90;;;;;;5046650;28;20175;-67
2022/01/13 04:24:13;;;;;;;16.80;2.30;;;10.50;99.90;;;;;;5045000;28;20192;-67
2022/01/13 04:26:43;;;;;;;14.83;2.40;;;10.50;99.90;;;;;;5045497;28;20231;-67
2022/01/13 04:31:38;;;;;;;18.33;2.30;;;10.50;99.90;;;;;;5048210;28;20195;-67
2022/01/13 04:34:04;;;;;;;13.80;2.53;;;10.50;99.90;;;;;;5050768;28;20679;-67
2022/01/13 04:36:31;;;;;;;12.37;1.97;;;10.50;99.90;;;;;;5032900;28;21080;-67
2022/01/13 04:39:00;;;;;;;18.50;2.27;;;10.50;99.90;;;;;;5064701;28;20191;-67
2022/01/13 04:41:33;;;;;;;24.77;3.00;;;10.50;99.90;;;;;;5017582;28;20564;-67
2022/01/13 04:44:00;;;;;;;12.70;2.40;;;10.50;99.90;;;;;;5048531;28;20311;-67
2022/01/13 04:46:27;;;;;;;18.83;2.80;;;10.50;99.90;;;;;;5027862;28;20677;-67
2022/01/13 04:48:53;;;;;;;17.23;2.40;;;10.50;99.90;;;;;;5050992;28;20180;-69
2022/01/13 04:51:20;;;;;;;16.03;2.50;;;10.50;99.90;;;;;;5050258;28;20521;-68
2022/01/13 04:53:46;;;;;;;16.90;2.27;;;10.40;99.90;;;;;;5050579;28;20195;-68
2022/01/13 04:56:25;;;;;;;18.03;2.20;;;10.30;99.90;;;;;;5049842;28;20206;-68
2022/01/13 04:58:52;;;;;;;12.60;2.20;;;10.30;99.90;;;;;;5049482;28;20237;-68
2022/01/13 05:01:18;;;;;;;12.97;2.30;;;10.30;99.90;;;;;;5049597;28;20190;-68
2022/01/13 05:03:44;;;;;;;10.90;2.50;;;10.30;99.90;;;;;;5032762;28;20274;-69
2022/01/13 05:06:13;;;;;;;15.43;2.47;;;10.30;99.90;;;;;;5049171;28;20202;-68
2022/01/13 05:08:39;;;;;;;21.63;2.77;;;10.30;99.90;;;;;;5050699;28;20202;-68
2022/01/13 05:11:06;;;;;;;16.53;3.17;;;10.40;99.90;;;;;;5049778;28;20191;-69
2022/01/13 05:13:32;;;;;;;18.60;2.57;;;10.40;99.90;;;;;;5050577;28;20191;-67
2022/01/13 05:15:59;;;;;;;17.70;2.40;;;10.30;99.90;;;;;;5047434;28;20202;-69
2022/01/13 05:18:50;;;;;;;21.43;3.10;;;10.30;99.90;;;;;;5045141;28;20212;-68
2022/01/13 05:24:06;;;;;;;18.73;2.50;;;10.50;99.90;;;;;;5014451;28;20217;-68
2022/01/13 05:26:32;;;;;;;14.80;2.30;;;10.50;99.90;;;;;;5050413;28;20199;-68
2022/01/13 05:28:58;;;;;;;14.63;2.37;;;10.50;99.90;;;;;;5048470;28;20195;-69
2022/01/13 05:31:25;;;;;;;15.27;2.30;;;10.50;99.90;;;;;;5045219;28;20655;-68
2022/01/13 05:33:51;;;;;;;14.37;2.40;;;10.50;99.90;;;;;;5027710;28;20207;-68
2022/01/13 05:36:17;;;;;;;21.07;2.57;;;10.50;99.90;;;;;;5048467;28;20222;-68
2022/01/13 05:38:43;;;;;;;15.03;2.30;;;10.50;99.90;;;;;;5058901;28;20190;-69
2022/01/13 05:41:11;;;;;;;14.67;2.40;;;10.50;99.90;;;;;;5060409;28;20610;-68
2022/01/13 05:43:37;;;;;;;15.77;2.83;;;10.50;99.90;;;;;;5049191;28;20563;-69
2022/01/13 05:46:04;;;;;;;20.63;2.73;;;10.50;99.90;;;;;;5048418;28;20187;-68
2022/01/13 05:48:31;;;;;;;17.70;2.40;;;10.60;99.90;;;;;;5062603;28;20187;-68
2022/01/13 05:51:00;;;;;;;16.57;2.73;;;10.70;99.90;;;;;;5043938;28;20211;-69
2022/01/13 05:53:26;;;;;;;13.30;2.40;;;10.70;99.90;;;;;;5032048;28;20194;-69
2022/01/13 05:55:52;;;;;;;25.20;3.33;;;10.80;99.90;;;;;;5031520;28;20269;-68
2022/01/13 05:58:19;;;;;;;19.33;2.90;;;10.90;99.90;;;;;;5031341;28;20312;-69
2022/01/13 06:00:45;;;;;;;24.00;3.27;;;10.90;99.90;;;;;;5048512;28;20621;-69
2022/01/13 06:03:11;;;;;;;18.93;2.93;;;10.90;99.90;;;;;;5031074;28;20187;-69
2022/01/13 06:05:38;;;;;;;27.53;2.83;;;11.00;99.90;;;;;;5047912;28;20244;-69
2022/01/13 06:08:05;;;;;;;17.17;2.53;;;11.00;99.90;;;;;;5047526;28;20199;-68
2022/01/13 06:10:31;;;;;;;18.53;3.00;;;11.10;99.90;;;;;;5048830;28;20193;-69
2022/01/13 06:12:57;;;;;;;13.37;2.13;;;11.10;99.90;;;;;;5049475;28;20256;-68
2022/01/13 06:15:26;;;;;;;19.70;2.50;;;11.10;99.90;;;;;;5048341;28;20725;-69
2022/01/13 06:17:55;;;;;;;24.27;2.87;;;11.10;99.90;;;;;;5045599;28;21438;-68
2022/01/13 06:20:23;;;;;;;22.70;3.17;;;11.20;99.90;;;;;;5042873;28;20195;-69
2022/01/13 06:22:51;;;;;;;17.70;2.60;;;11.20;99.90;;;;;;5049293;28;20187;-67
2022/01/13 06:25:18;;;;;;;15.57;2.80;;;11.20;99.90;;;;;;5048534;28;20223;-68
2022/01/13 06:27:45;;;;;;;13.90;2.37;;;11.20;99.90;;;;;;5048235;28;20184;-66
2022/01/13 06:30:14;;;;;;;27.10;2.80;;;11.30;99.90;;;;;;5047396;28;20258;-65
2022/01/13 06:32:43;;;;;;;19.57;3.00;;;11.20;99.90;;;;;;5049056;28;20183;-65
2022/01/13 06:35:10;;;;;;;28.57;3.43;;;11.20;99.90;;;;;;5047775;28;20616;-65
2022/01/13 06:37:37;;;;;;;16.07;2.77;;;11.20;99.90;;;;;;5046973;28;20200;-66
2022/01/13 06:40:05;;;;;;;18.60;3.00;;;11.20;99.90;;;;;;5031573;28;20191;-66
2022/01/13 06:42:31;;;;;;;24.30;2.90;;;11.20;99.90;;;;;;5047416;28;20179;-65
2022/01/13 06:44:58;;;;;;;21.30;2.80;;;11.20;99.90;;;;;;5049039;28;20229;-65
2022/01/13 06:47:24;;;;;;;24.47;2.47;;;11.20;99.90;;;;;;5047617;28;20189;-65
2022/01/13 06:49:50;;;;;;;23.40;3.83;;;11.20;99.90;;;;;;5041746;28;20191;-65
2022/01/13 06:52:17;;;;;;;28.87;3.17;;;11.20;99.90;;;;;;5045245;28;20184;-65
2022/01/13 06:54:45;;;;;;;25.30;3.33;;;11.20;99.90;;;;;;5061495;28;20183;-66
2022/01/13 06:57:11;;;;;;;13.13;2.80;;;11.20;99.90;;;;;;5047423;28;20718;-66
2022/01/13 06:59:37;;;;;;;19.47;3.40;;;11.20;99.90;;;;;;5048630;28;20674;-66
2022/01/13 07:02:04;;;;;;;19.27;2.80;;;11.20;99.90;;;;;;5048291;28;20187;-66
2022/01/13 07:04:30;;;;;;;14.17;2.90;;;11.20;99.90;;;;;;5046767;28;20184;-67
2022/01/13 07:06:57;;;;;;;17.33;2.73;;;11.30;99.90;;;;;;5045747;28;20222;-68
2022/01/13 07:09:23;;;;;;;13.80;2.50;;;11.20;99.90;;;;;;5041223;28;20194;-67
2022/01/13 07:11:50;;;;;;;13.20;2.93;;;11.30;99.90;;;;;;5043919;28;20305;-67
2022/01/13 07:14:16;;;;;;;18.30;2.83;;;11.30;99.90;;;;;;5030529;28;20811;-67
2022/01/13 07:16:44;;;;;;;18.53;2.90;;;11.30;99.90;;;;;;5046744;28;20286;-67
2022/01/13 07:19:14;;;;;;;16.10;2.53;;;11.30;99.90;;;;;;5046981;28;20840;-67
2022/01/13 07:21:42;;;;;;;15.27;3.00;;;11.30;99.90;;;;;;5039568;28;20187;-66
2022/01/13 07:24:09;;;;;;;29.53;3.07;;;11.30;99.90;;;;;;5026250;28;20188;-67
2022/01/13 07:26:36;;;;;;;17.47;2.90;;;11.30;99.90;;;;;;5038301;28;20183;-67
2022/01/13 07:29:04;;;;;;;13.27;2.47;;;11.30;99.90;;;;;;5048487;28;20175;-67
2022/01/13 07:31:31;;;;;;;21.30;3.17;;;11.30;99.90;;;;;;5045712;28;20769;-66
2022/01/13 07:33:57;;;;;;;18.20;3.27;;;11.40;99.90;;;;;;5046579;28;20198;-66
2022/01/13 07:36:25;;;;;;;22.10;2.97;;;11.40;99.90;;;;;;5046542;28;20203;-66
2022/01/13 07:38:51;;;;;;;19.70;2.90;;;11.50;99.90;;;;;;5046591;28;20556;-66
2022/01/13 07:41:18;;;;;;;20.20;3.63;;;11.60;99.90;;;;;;5030729;28;20191;-66
2022/01/13 07:43:48;;;;;;;26.50;3.77;;;11.80;99.90;;;;;;5046183;28;20193;-65
2022/01/13 07:46:15;;;;;;;17.67;3.13;;;11.90;99.90;;;;;;5046341;28;20953;-65
2022/01/13 07:48:41;;;;;;;18.50;3.20;;;12.00;99.90;;;;;;5046188;28;20230;-67
2022/01/13 07:51:07;;;;;;;25.77;3.37;;;11.90;99.90;;;;;;5043352;28;20219;-66
2022/01/13 07:53:34;;;;;;;22.10;3.17;;;11.90;99.90;;;;;;5051060;28;20765;-65
2022/01/13 07:56:00;;;;;;;19.77;3.50;;;11.90;99.90;;;;;;5047390;28;20556;-65
2022/01/13 07:58:26;;;;;;;18.30;2.93;;;11.90;99.90;;;;;;5047747;28;20514;-66
2022/01/13 08:00:53;;;;;;;20.23;3.00;;;11.90;99.90;;;;;;5044362;28;20206;-68
2022/01/13 08:03:19;;;;;;;19.90;3.70;;;11.80;99.90;;;;;;5044711;28;20215;-67
2022/01/13 08:05:46;;;;;;;19.27;3.73;;;11.80;99.90;;;;;;5044856;28;20310;-67
2022/01/13 08:08:12;;;;;;;21.10;3.13;;;11.80;99.90;;;;;;5043147;28;20190;-68
2022/01/13 08:10:38;;;;;;;19.53;3.10;;;11.80;99.90;;;;;;5047196;28;20239;-68
2022/01/13 08:13:04;;;;;;;13.77;2.60;;;11.80;99.90;;;;;;5047649;28;20186;-65
2022/01/13 08:15:34;;;;;;;18.97;3.23;;;11.90;99.90;;;;;;5046078;28;20670;-64
2022/01/13 08:20:45;;;;;;;22.67;3.20;;;12.00;99.90;;;;;;5047266;28;20203;-65
2022/01/13 08:23:12;;;;;;;19.97;3.40;;;12.10;99.90;;;;;;5039492;28;24745;-64
2022/01/13 08:25:39;;;;;;;15.30;3.20;;;12.10;99.90;;;;;;5028610;28;20184;-68
2022/01/13 08:28:05;;;;;;;20.90;2.90;;;12.10;99.90;;;;;;5044726;28;20211;-66
2022/01/13 08:30:34;;;;;;;28.37;3.03;;;12.20;99.90;;;;;;5061901;28;20184;-66
2022/01/13 08:33:01;;;;;;;20.97;3.70;;;12.30;99.90;;;;;;5045626;28;20233;-67
2022/01/13 08:35:27;;;;;;;14.87;2.73;;;12.30;99.90;;;;;;5040730;28;20611;-67
2022/01/13 08:37:53;;;;;;;16.53;2.33;;;12.30;99.90;;;;;;5045061;28;20212;-65
2022/01/13 08:40:20;;;;;;;22.13;3.50;;;12.30;99.90;;;;;;5036891;28;20191;-65
2022/01/13 08:42:46;;;;;;;14.57;2.60;;;12.40;99.90;;;;;;5028212;28;20175;-66
2022/01/13 08:45:13;;;;;;;21.67;2.60;;;12.40;99.90;;;;;;5045983;28;20188;-66
2022/01/13 08:47:40;;;;;;;19.77;3.80;;;12.50;99.90;;;;;;5044742;28;20270;-66
2022/01/13 08:50:08;;;;;;;15.47;2.80;;;12.50;99.90;;;;;;5039160;28;20223;-66
2022/01/13 08:52:38;;;;;;;21.53;2.23;;;12.50;99.90;;;;;;5042536;28;20200;-67
2022/01/13 08:55:07;;;;;;;14.23;2.67;;;12.50;99.90;;;;;;5039449;28;20204;-67
2022/01/13 08:57:34;;;;;;;11.17;2.07;;;12.60;99.90;;;;;;5043307;28;20672;-67
2022/01/13 09:00:08;;;;;;;22.80;2.20;;;12.50;99.90;;;;;;5045988;28;20187;-67
2022/01/13 09:02:34;;;;;;;10.57;1.57;;;12.50;99.90;;;;;;5046183;28;20229;-66
2022/01/13 09:05:05;;;;;;;18.80;2.27;;;12.50;99.90;;;;;;5046567;28;20172;-67
2022/01/13 09:07:32;;;;;;;11.97;1.90;;;12.60;99.90;;;;;;5037868;28;20722;-67
2022/01/13 09:09:58;;;;;;;13.53;1.90;;;12.80;99.90;;;;;;5046005;28;20199;-67
2022/01/13 09:12:25;;;;;;;10.10;2.20;;;12.90;99.90;;;;;;5034499;28;20227;-68
2022/01/13 09:14:58;;;;;;;13.23;2.10;;;12.90;99.90;;;;;;5045554;28;20927;-68
2022/01/13 09:17:24;;;;;;;22.43;2.13;;;12.90;99.90;;;;;;5048823;28;20915;-67
2022/01/13 09:19:51;;;;;;;18.67;2.80;;;12.90;99.90;;;;;;5049704;28;20520;-67
2022/01/13 09:22:19;;;;;;;10.80;1.90;;;12.90;99.90;;;;;;5049336;28;20846;-68
2022/01/13 09:24:46;;;;;;;14.37;2.30;;;12.80;99.90;;;;;;5046277;28;20262;-68
2022/01/13 09:27:13;;;;;;;13.97;2.53;;;12.70;99.90;;;;;;5045866;28;20191;-70
2022/01/13 09:29:40;;;;;;;15.73;2.63;;;12.70;99.90;;;;;;5030748;28;20410;-70
2022/01/13 09:32:07;;;;;;;12.97;2.10;;;12.60;99.90;;;;;;5048082;28;20277;-70
2022/01/13 09:34:33;;;;;;;12.67;2.17;;;12.50;99.90;;;;;;5049350;28;20256;-70
2022/01/13 09:37:00;;;;;;;10.30;1.90;;;12.50;99.90;;;;;;5046831;28;20203;-70
2022/01/13 09:39:26;;;;;;;12.30;2.30;;;12.50;99.90;;;;;;5047022;28;20200;-70
2022/01/13 09:41:55;;;;;;;12.30;2.20;;;12.50;99.90;;;;;;5046555;28;20282;-70
2022/01/13 09:44:22;;;;;;;11.50;1.90;;;12.50;99.90;;;;;;5030849;28;20183;-70
2022/01/13 09:46:49;;;;;;;10.60;2.27;;;12.60;99.90;;;;;;5048449;28;20199;-70
2022/01/13 09:49:16;;;;;;;16.60;2.60;;;12.80;99.90;;;;;;5047037;28;20656;-69
2022/01/13 09:51:45;;;;;;;13.23;2.60;;;12.80;99.90;;;;;;5047982;28;20278;-70
2022/01/13 09:54:13;;;;;;;18.13;1.97;;;12.70;99.90;;;;;;5047437;28;20228;-70
2022/01/13 09:56:41;;;;;;;9.83;1.73;;;12.80;99.90;;;;;;5026598;28;20687;-70
2022/01/13 09:59:07;;;;;;;11.23;2.03;;;12.70;99.90;;;;;;5038682;28;20191;-70
2022/01/13 10:01:34;;;;;;;7.57;1.57;;;12.80;99.90;;;;;;5043354;28;20188;-69
2022/01/13 10:04:00;;;;;;;16.47;2.43;;;12.90;99.90;;;;;;5046076;28;20194;-69
2022/01/13 10:06:27;;;;;;;9.33;2.10;;;12.90;99.90;;;;;;5029980;28;20643;-69
2022/01/13 10:08:56;;;;;;;11.90;2.23;;;13.00;99.90;;;;;;5046826;28;20198;-69
2022/01/13 10:11:35;;;;;;;10.40;1.83;;;13.00;99.90;;;;;;5058236;28;20248;-69
2022/01/13 10:16:53;;;;;;;13.27;2.53;;;13.10;99.90;;;;;;5042396;28;20548;-69
2022/01/13 10:19:43;;;;;;;10.77;1.90;;;13.10;99.90;;;;;;5044484;28;20201;-70
2022/01/13 10:22:22;;;;;;;17.23;2.37;;;13.10;99.90;;;;;;5044695;28;20192;-70
2022/01/13 10:24:53;;;;;;;13.37;1.70;;;13.10;99.90;;;;;;5043602;28;20302;-70
2022/01/13 10:27:27;;;;;;;12.37;1.77;;;13.10;99.90;;;;;;5052165;28;20195;-70
2022/01/13 10:30:05;;;;;;;11.53;1.90;;;13.20;99.90;;;;;;5047587;28;20199;-69
2022/01/13 10:32:39;;;;;;;9.37;1.60;;;13.30;99.90;;;;;;5042363;28;20191;-69
2022/01/13 10:35:14;;;;;;;9.13;1.63;;;13.40;99.90;;;;;;5045324;28;20254;-70
2022/01/13 10:37:56;;;;;;;14.57;1.90;;;13.30;99.90;;;;;;5040769;28;20256;-69
2022/01/13 10:40:34;;;;;;;8.13;1.37;;;13.30;99.90;;;;;;5045359;28;20627;-70
2022/01/13 10:43:07;;;;;;;5.40;1.20;;;13.20;99.90;;;;;;5042948;28;20223;-68
2022/01/13 10:45:37;;;;;;;16.07;2.47;;;13.20;99.90;;;;;;5042626;28;20286;-68
2022/01/13 10:48:17;;;;;;;10.27;2.50;;;13.10;99.90;;;;;;5023970;28;20880;-69
2022/01/13 10:51:04;;;;;;;4.43;1.40;;;13.10;99.90;;;;;;5042395;28;20940;-69
2022/01/13 10:53:36;;;;;;;8.30;1.30;;;13.20;99.90;;;;;;5043865;28;20191;-69
2022/01/13 10:56:14;;;;;;;7.50;1.67;;;13.10;99.90;;;;;;5044809;28;20214;-69
2022/01/13 10:58:53;;;;;;;10.07;1.97;;;13.10;99.90;;;;;;5040337;28;20279;-69
2022/01/13 11:01:20;;;;;;;5.63;1.40;;;13.10;99.90;;;;;;5042567;28;20206;-69
2022/01/13 11:03:47;;;;;;;8.67;2.07;;;13.10;99.90;;;;;;5044004;28;20237;-69
2022/01/13 11:06:14;;;;;;;11.03;1.60;;;13.20;99.90;;;;;;5045442;28;20905;-69
2022/01/13 11:08:48;;;;;;;6.07;1.27;;;13.20;99.90;;;;;;5044360;28;20183;-69
2022/01/13 11:11:28;;;;;;;9.87;1.87;;;13.10;99.90;;;;;;5041846;28;20245;-69
2022/01/13 11:14:03;;;;;;;3.87;1.10;;;13.10;99.90;;;;;;5027970;28;20186;-69
2022/01/13 11:16:30;;;;;;;12.53;1.80;;;13.10;99.90;;;;;;5044341;28;21052;-69
2022/01/13 11:18:58;;;;;;;13.07;2.07;;;13.00;99.90;;;;;;5045872;28;20918;-69
2022/01/13 11:21:26;;;;;;;6.47;1.80;;;12.90;99.90;;;;;;5047975;28;20187;-69
2022/01/13 11:23:55;;;;;;;4.83;1.20;;;12.70;99.90;;;;;;5030058;28;20260;-69
2022/01/13 11:26:27;;;;;;;5.00;1.23;;;12.60;99.90;;;;;;5046692;28;20187;-69
2022/01/13 11:28:56;;;;;;;3.43;1.20;;;12.50;99.90;;;;;;5040161;28;20186;-69
2022/01/13 11:31:23;;;;;;;5.77;1.30;;;12.30;99.90;;;;;;5046389;28;21039;-69
2022/01/13 11:33:50;;;;;;;6.93;1.50;;;12.20;99.90;;;;;;5047293;28;21152;-70
2022/01/13 11:36:19;;;;;;;5.77;1.57;;;12.20;99.90;;;;;;5030350;28;20744;-69
2022/01/13 11:39:02;;;;;;;3.00;1.10;;;12.10;99.90;;;;;;5047583;28;20257;-70
2022/01/13 11:41:29;;;;;;;4.80;1.40;;;12.20;99.90;;;;;;5041440;28;20188;-69
2022/01/13 11:44:13;;;;;;;3.77;1.00;;;12.10;99.90;;;;;;5045177;28;20241;-69
2022/01/13 11:46:50;;;;;;;3.17;1.10;;;12.20;99.90;;;;;;5019786;28;20675;-69
2022/01/13 11:49:24;;;;;;;5.73;1.13;;;12.20;99.90;;;;;;5045053;28;20195;-69
2022/01/13 11:52:02;;;;;;;6.90;1.10;;;12.20;99.90;;;;;;5027066;28;20174;-69
2022/01/13 11:54:36;;;;;;;3.17;1.23;;;12.20;99.90;;;;;;5045883;28;20237;-69
2022/01/13 11:57:20;;;;;;;3.70;1.03;;;12.30;99.90;;;;;;5043606;28;20633;-69
2022/01/13 11:59:59;;;;;;;4.20;1.43;;;12.30;99.90;;;;;;5034460;28;20281;-69
2022/01/13 12:02:29;;;;;;;2.87;1.40;;;12.30;99.90;;;;;;5041259;28;20210;-69
2022/01/13 12:05:14;;;;;;;3.00;1.40;;;12.30;99.90;;;;;;5043107;28;20187;-69
2022/01/13 12:08:02;;;;;;;6.83;1.30;;;12.30;99.90;;;;;;5044598;28;20934;-69
2022/01/13 12:10:40;;;;;;;4.10;0.87;;;12.30;99.90;;;;;;5060147;28;20656;-69
2022/01/13 12:13:28;;;;;;;5.20;1.20;;;12.30;99.90;;;;;;5046143;28;20199;-69
2022/01/13 12:15:56;;;;;;;1.60;0.87;;;12.30;99.90;;;;;;5043096;28;20199;-69
2022/01/13 12:19:02;;;;;;;3.13;1.27;;;12.50;99.90;;;;;;5042188;28;20655;-69
2022/01/13 12:21:42;;;;;;;3.47;1.23;;;12.60;99.90;;;;;;5044972;28;20190;-69
2022/01/13 12:24:18;;;;;;;3.23;0.90;;;12.60;99.90;;;;;;5047139;28;20229;-69
2022/01/13 12:26:47;;;;;;;2.60;0.90;;;12.70;99.90;;;;;;5040006;28;20979;-69
2022/01/13 12:29:18;;;;;;;2.70;1.07;;;12.80;99.90;;;;;;5038923;28;20195;-69
2022/01/13 12:32:04;;;;;;;5.40;1.10;;;12.80;99.90;;;;;;5022598;28;20189;-69
2022/01/13 12:34:33;;;;;;;3.90;1.00;;;12.80;99.90;;;;;;5045543;28;20194;-69
2022/01/13 12:37:15;;;;;;;4.80;1.30;;;12.80;99.90;;;;;;5023395;28;20222;-69
2022/01/13 12:39:56;;;;;;;6.60;1.27;;;12.90;99.90;;;;;;5044857;28;20192;-69
2022/01/13 12:42:52;;;;;;;6.37;1.20;;;12.90;99.90;;;;;;5042875;28;20191;-69
2022/01/13 12:45:28;;;;;;;4.30;1.00;;;12.80;99.90;;;;;;5043686;28;20207;-69
2022/01/13 12:48:08;;;;;;;5.40;1.30;;;12.90;99.90;;;;;;5045068;28;20199;-69
2022/01/13 12:50:44;;;;;;;4.07;1.00;;;12.90;99.90;;;;;;5048761;28;20190;-69
2022/01/13 12:53:17;;;;;;;3.33;1.00;;;13.00;99.90;;;;;;5049373;28;20195;-69
2022/01/13 12:56:03;;;;;;;5.80;1.10;;;13.00;99.90;;;;;;5048956;28;20249;-69
2022/01/13 12:58:37;;;;;;;8.33;1.13;;;13.00;99.90;;;;;;5019880;28;20299;-69
2022/01/13 13:01:11;;;;;;;7.87;1.73;;;13.00;99.90;;;;;;5043897;28;20702;-69
2022/01/13 13:03:38;;;;;;;3.87;1.40;;;13.00;99.90;;;;;;5060546;28;20192;-69
2022/01/13 13:06:16;;;;;;;7.67;1.20;;;13.00;99.90;;;;;;5046591;28;20215;-69
2022/01/13 13:08:47;;;;;;;8.37;1.40;;;13.00;99.90;;;;;;5045076;28;20188;-69
2022/01/13 13:11:14;;;;;;;7.90;1.30;;;13.00;99.90;;;;;;5032550;28;20222;-69
2022/01/13 13:13:52;;;;;;;3.60;1.17;;;13.00;99.90;;;;;;5048832;28;20195;-69
2022/01/13 13:16:22;;;;;;;6.57;1.20;;;13.00;99.90;;;;;;5028365;28;20202;-69
2022/01/13 13:18:49;;;;;;;7.67;1.40;;;13.00;99.90;;;;;;5050069;28;20208;-70